General Aviation Weather

Text Reports

Enter one or more of the following location identifiers separated by a space:

Zip Code, Four-Character ICAO or Three-Character IATA airport codes.

METAR - Aviation Routine Weather Report
KORC - Orange City, Iowa
Updated at 3:55 AM GMT on February 09, 2016 (9:55 PM CST):
METAR KORC 090355Z AUTO 35011G15KT 10SM CLR M08/M11 A3008 RMK AO2
TAF - Terminal Area Forecast
KORC - Orange City, Iowa
Updated at 3:55 AM GMT on February 09, 2016 (9:55 PM CST):
No TAF is currently available for this location.
Decoded:
No decoded TAF is available.
PIREP - Pilot Weather Report
KORC - Orange City, Iowa
Updated at 3:55 AM GMT on February 09, 2016 (9:55 PM CST):
No PIREP is currently available for this location.
AIRMET - Airmens Meteorological Information
KORC - Orange City, Iowa
Updated at 3:55 AM GMT on February 09, 2016 (9:55 PM CST):
No AIRMET is currently available for this location.
SIGMET - Significant Meteorological Information
KORC - Orange City, Iowa
Updated at 3:55 AM GMT on February 09, 2016 (9:55 PM CST):
No SIGMET is currently available for this location.
NOTAM - Notice to Airmen
KORC - Orange City, Iowa
Updated at 3:55 AM GMT on February 09, 2016 (9:55 PM CST):
No NOTAM is currently available for this location.
Forecast Area
KORC - Orange City, Iowa
Updated at 3:55 AM GMT on February 09, 2016 (9:55 PM CST):
No NOTAM is currently available for this location.
Aviation Weather Maps